sensor_id;sensor_type;location;lat;lon;timestamp;P1;durP1;ratioP1;P2;durP2;ratioP2
58581;SDS011;44361;51.476;5.700;2023-11-21T00:01:55;40.13;;;17.75;;
58581;SDS011;44361;51.476;5.700;2023-11-21T00:04:22;50.60;;;18.58;;
58581;SDS011;44361;51.476;5.700;2023-11-21T00:06:48;48.25;;;18.80;;
58581;SDS011;44361;51.476;5.700;2023-11-21T00:09:14;45.53;;;18.65;;
58581;SDS011;44361;51.476;5.700;2023-11-21T00:11:43;49.97;;;18.48;;
58581;SDS011;44361;51.476;5.700;2023-11-21T00:14:10;53.13;;;19.60;;
58581;SDS011;44361;51.476;5.700;2023-11-21T00:16:36;44.22;;;18.30;;
58581;SDS011;44361;51.476;5.700;2023-11-21T00:19:02;52.88;;;18.73;;
58581;SDS011;44361;51.476;5.700;2023-11-21T00:21:27;43.28;;;17.40;;
58581;SDS011;44361;51.476;5.700;2023-11-21T00:23:53;44.92;;;17.23;;
58581;SDS011;44361;51.476;5.700;2023-11-21T00:26:18;40.88;;;17.15;;
58581;SDS011;44361;51.476;5.700;2023-11-21T00:28:44;40.00;;;16.20;;
58581;SDS011;44361;51.476;5.700;2023-11-21T00:31:10;35.67;;;16.27;;
58581;SDS011;44361;51.476;5.700;2023-11-21T00:33:36;33.13;;;16.65;;
58581;SDS011;44361;51.476;5.700;2023-11-21T00:36:01;37.75;;;17.05;;
58581;SDS011;44361;51.476;5.700;2023-11-21T00:38:27;36.65;;;15.73;;
58581;SDS011;44361;51.476;5.700;2023-11-21T00:40:53;34.85;;;16.23;;
58581;SDS011;44361;51.476;5.700;2023-11-21T00:43:21;43.05;;;16.20;;
58581;SDS011;44361;51.476;5.700;2023-11-21T00:45:47;44.97;;;16.42;;
58581;SDS011;44361;51.476;5.700;2023-11-21T00:48:14;36.33;;;16.25;;
58581;SDS011;44361;51.476;5.700;2023-11-21T00:50:39;34.45;;;16.15;;
58581;SDS011;44361;51.476;5.700;2023-11-21T00:53:05;37.80;;;14.73;;
58581;SDS011;44361;51.476;5.700;2023-11-21T00:55:32;33.15;;;15.05;;
58581;SDS011;44361;51.476;5.700;2023-11-21T00:57:58;43.03;;;15.25;;
58581;SDS011;44361;51.476;5.700;2023-11-21T01:00:24;33.67;;;16.23;;
58581;SDS011;44361;51.476;5.700;2023-11-21T01:02:50;39.03;;;15.30;;
58581;SDS011;44361;51.476;5.700;2023-11-21T01:05:16;30.80;;;15.50;;
58581;SDS011;44361;51.476;5.700;2023-11-21T01:07:42;40.17;;;15.88;;
58581;SDS011;44361;51.476;5.700;2023-11-21T01:10:08;35.15;;;14.25;;
58581;SDS011;44361;51.476;5.700;2023-11-21T01:12:35;45.05;;;16.10;;
58581;SDS011;44361;51.476;5.700;2023-11-21T01:15:02;31.23;;;15.23;;
58581;SDS011;44361;51.476;5.700;2023-11-21T01:17:34;33.20;;;15.68;;
58581;SDS011;44361;51.476;5.700;2023-11-21T01:20:01;36.20;;;16.90;;
58581;SDS011;44361;51.476;5.700;2023-11-21T01:22:27;34.75;;;16.42;;
58581;SDS011;44361;51.476;5.700;2023-11-21T01:24:53;40.92;;;15.55;;
58581;SDS011;44361;51.476;5.700;2023-11-21T01:27:19;35.75;;;15.68;;
58581;SDS011;44361;51.476;5.700;2023-11-21T01:29:45;37.33;;;15.60;;
58581;SDS011;44361;51.476;5.700;2023-11-21T01:32:11;39.95;;;16.40;;
58581;SDS011;44361;51.476;5.700;2023-11-21T01:34:36;43.50;;;17.73;;
58581;SDS011;44361;51.476;5.700;2023-11-21T01:37:02;35.92;;;17.42;;
58581;SDS011;44361;51.476;5.700;2023-11-21T01:39:29;41.22;;;17.27;;
58581;SDS011;44361;51.476;5.700;2023-11-21T01:41:55;47.33;;;17.23;;
58581;SDS011;44361;51.476;5.700;2023-11-21T01:44:23;42.45;;;16.92;;
58581;SDS011;44361;51.476;5.700;2023-11-21T01:46:49;49.63;;;17.30;;
58581;SDS011;44361;51.476;5.700;2023-11-21T01:49:16;41.95;;;18.05;;
58581;SDS011;44361;51.476;5.700;2023-11-21T01:51:43;41.20;;;17.70;;
58581;SDS011;44361;51.476;5.700;2023-11-21T01:54:14;40.72;;;17.08;;
58581;SDS011;44361;51.476;5.700;2023-11-21T01:56:42;46.50;;;18.58;;
58581;SDS011;44361;51.476;5.700;2023-11-21T01:59:09;43.47;;;16.92;;
58581;SDS011;44361;51.476;5.700;2023-11-21T02:01:36;44.38;;;18.40;;
58581;SDS011;44361;51.476;5.700;2023-11-21T02:04:02;39.33;;;17.92;;
58581;SDS011;44361;51.476;5.700;2023-11-21T02:06:28;43.17;;;18.63;;
58581;SDS011;44361;51.476;5.700;2023-11-21T02:08:56;47.40;;;19.20;;
58581;SDS011;44361;51.476;5.700;2023-11-21T02:11:21;46.38;;;17.80;;
58581;SDS011;44361;51.476;5.700;2023-11-21T02:13:47;41.10;;;19.00;;
58581;SDS011;44361;51.476;5.700;2023-11-21T02:16:15;47.33;;;19.05;;
58581;SDS011;44361;51.476;5.700;2023-11-21T02:18:40;39.78;;;18.20;;
58581;SDS011;44361;51.476;5.700;2023-11-21T02:21:06;38.67;;;18.95;;
58581;SDS011;44361;51.476;5.700;2023-11-21T02:23:32;50.70;;;19.33;;
58581;SDS011;44361;51.476;5.700;2023-11-21T02:25:58;46.63;;;19.00;;
58581;SDS011;44361;51.476;5.700;2023-11-21T02:28:24;40.08;;;18.98;;
58581;SDS011;44361;51.476;5.700;2023-11-21T02:30:53;43.65;;;19.48;;
58581;SDS011;44361;51.476;5.700;2023-11-21T02:33:21;56.38;;;21.33;;
58581;SDS011;44361;51.476;5.700;2023-11-21T02:35:47;63.08;;;22.80;;
58581;SDS011;44361;51.476;5.700;2023-11-21T02:38:13;57.95;;;22.33;;
58581;SDS011;44361;51.476;5.700;2023-11-21T02:40:39;62.88;;;24.88;;
58581;SDS011;44361;51.476;5.700;2023-11-21T02:43:04;79.47;;;24.83;;
58581;SDS011;44361;51.476;5.700;2023-11-21T02:45:31;90.47;;;23.75;;
58581;SDS011;44361;51.476;5.700;2023-11-21T02:47:56;81.03;;;23.00;;
58581;SDS011;44361;51.476;5.700;2023-11-21T02:50:22;69.47;;;22.90;;
58581;SDS011;44361;51.476;5.700;2023-11-21T02:52:48;69.30;;;22.55;;
58581;SDS011;44361;51.476;5.700;2023-11-21T02:55:14;104.30;;;25.02;;
58581;SDS011;44361;51.476;5.700;2023-11-21T02:57:39;55.65;;;24.00;;
58581;SDS011;44361;51.476;5.700;2023-11-21T03:00:05;72.20;;;24.13;;
58581;SDS011;44361;51.476;5.700;2023-11-21T03:02:35;143.23;;;27.33;;
58581;SDS011;44361;51.476;5.700;2023-11-21T03:05:04;92.60;;;23.38;;
58581;SDS011;44361;51.476;5.700;2023-11-21T03:07:30;87.80;;;23.17;;
58581;SDS011;44361;51.476;5.700;2023-11-21T03:09:56;66.22;;;22.65;;
58581;SDS011;44361;51.476;5.700;2023-11-21T03:12:22;113.45;;;25.10;;
58581;SDS011;44361;51.476;5.700;2023-11-21T03:14:48;57.00;;;21.85;;
58581;SDS011;44361;51.476;5.700;2023-11-21T03:17:13;63.95;;;22.10;;
58581;SDS011;44361;51.476;5.700;2023-11-21T03:19:41;52.67;;;21.73;;
58581;SDS011;44361;51.476;5.700;2023-11-21T03:22:06;69.55;;;23.25;;
58581;SDS011;44361;51.476;5.700;2023-11-21T03:24:33;68.13;;;23.08;;
58581;SDS011;44361;51.476;5.700;2023-11-21T03:26:59;84.85;;;23.75;;
58581;SDS011;44361;51.476;5.700;2023-11-21T03:29:25;84.82;;;24.85;;
58581;SDS011;44361;51.476;5.700;2023-11-21T03:31:51;137.75;;;28.30;;
58581;SDS011;44361;51.476;5.700;2023-11-21T03:34:22;67.53;;;22.70;;
58581;SDS011;44361;51.476;5.700;2023-11-21T03:36:50;71.85;;;23.80;;
58581;SDS011;44361;51.476;5.700;2023-11-21T03:39:16;133.82;;;26.90;;
58581;SDS011;44361;51.476;5.700;2023-11-21T03:41:41;139.18;;;25.05;;
58581;SDS011;44361;51.476;5.700;2023-11-21T03:44:07;122.22;;;24.40;;
58581;SDS011;44361;51.476;5.700;2023-11-21T03:46:32;109.50;;;25.45;;
58581;SDS011;44361;51.476;5.700;2023-11-21T03:48:58;138.40;;;26.42;;
58581;SDS011;44361;51.476;5.700;2023-11-21T03:51:24;96.53;;;23.20;;
58581;SDS011;44361;51.476;5.700;2023-11-21T03:53:49;137.70;;;26.33;;
58581;SDS011;44361;51.476;5.700;2023-11-21T03:56:15;90.97;;;23.50;;
58581;SDS011;44361;51.476;5.700;2023-11-21T03:58:40;68.90;;;23.80;;
58581;SDS011;44361;51.476;5.700;2023-11-21T04:01:06;80.45;;;23.75;;
58581;SDS011;44361;51.476;5.700;2023-11-21T04:03:31;64.85;;;23.52;;
58581;SDS011;44361;51.476;5.700;2023-11-21T04:05:57;85.13;;;22.85;;
58581;SDS011;44361;51.476;5.700;2023-11-21T04:08:22;87.10;;;24.60;;
58581;SDS011;44361;51.476;5.700;2023-11-21T04:10:48;71.22;;;22.13;;
58581;SDS011;44361;51.476;5.700;2023-11-21T04:13:13;80.07;;;23.77;;
58581;SDS011;44361;51.476;5.700;2023-11-21T04:15:39;115.68;;;25.83;;
58581;SDS011;44361;51.476;5.700;2023-11-21T04:18:05;66.75;;;22.75;;
58581;SDS011;44361;51.476;5.700;2023-11-21T04:20:30;85.97;;;24.98;;
58581;SDS011;44361;51.476;5.700;2023-11-21T04:22:56;150.25;;;28.00;;
58581;SDS011;44361;51.476;5.700;2023-11-21T04:25:21;64.57;;;23.23;;
58581;SDS011;44361;51.476;5.700;2023-11-21T04:27:48;74.03;;;24.38;;
58581;SDS011;44361;51.476;5.700;2023-11-21T04:30:14;70.47;;;24.38;;
58581;SDS011;44361;51.476;5.700;2023-11-21T04:32:40;71.25;;;24.27;;
58581;SDS011;44361;51.476;5.700;2023-11-21T04:35:06;88.38;;;22.73;;
58581;SDS011;44361;51.476;5.700;2023-11-21T04:37:33;85.05;;;24.52;;
58581;SDS011;44361;51.476;5.700;2023-11-21T04:39:59;81.10;;;23.30;;
58581;SDS011;44361;51.476;5.700;2023-11-21T04:42:25;102.88;;;25.25;;
58581;SDS011;44361;51.476;5.700;2023-11-21T04:44:50;57.95;;;23.10;;
58581;SDS011;44361;51.476;5.700;2023-11-21T04:47:17;119.38;;;27.05;;
58581;SDS011;44361;51.476;5.700;2023-11-21T04:49:45;80.60;;;23.52;;
58581;SDS011;44361;51.476;5.700;2023-11-21T04:52:12;92.40;;;23.40;;
58581;SDS011;44361;51.476;5.700;2023-11-21T04:54:38;66.35;;;22.13;;
58581;SDS011;44361;51.476;5.700;2023-11-21T04:57:05;75.00;;;22.83;;
58581;SDS011;44361;51.476;5.700;2023-11-21T04:59:32;96.00;;;24.17;;
58581;SDS011;44361;51.476;5.700;2023-11-21T05:01:58;125.53;;;24.60;;
58581;SDS011;44361;51.476;5.700;2023-11-21T05:04:25;62.35;;;22.00;;
58581;SDS011;44361;51.476;5.700;2023-11-21T05:06:50;179.32;;;27.50;;
58581;SDS011;44361;51.476;5.700;2023-11-21T05:09:16;58.20;;;21.80;;
58581;SDS011;44361;51.476;5.700;2023-11-21T05:11:42;55.80;;;21.85;;
58581;SDS011;44361;51.476;5.700;2023-11-21T05:14:08;103.00;;;24.70;;
58581;SDS011;44361;51.476;5.700;2023-11-21T05:16:34;58.50;;;22.52;;
58581;SDS011;44361;51.476;5.700;2023-11-21T05:19:00;98.28;;;24.85;;
58581;SDS011;44361;51.476;5.700;2023-11-21T05:21:26;93.70;;;24.17;;
58581;SDS011;44361;51.476;5.700;2023-11-21T05:23:52;64.20;;;22.27;;
58581;SDS011;44361;51.476;5.700;2023-11-21T05:26:18;58.22;;;23.42;;
58581;SDS011;44361;51.476;5.700;2023-11-21T05:28:43;63.63;;;22.75;;
58581;SDS011;44361;51.476;5.700;2023-11-21T05:31:09;86.32;;;24.15;;
58581;SDS011;44361;51.476;5.700;2023-11-21T05:33:35;58.22;;;23.92;;
58581;SDS011;44361;51.476;5.700;2023-11-21T05:36:01;123.72;;;26.48;;
58581;SDS011;44361;51.476;5.700;2023-11-21T05:38:27;59.38;;;22.85;;
58581;SDS011;44361;51.476;5.700;2023-11-21T05:40:54;94.90;;;25.10;;
58581;SDS011;44361;51.476;5.700;2023-11-21T05:43:20;56.60;;;23.90;;
58581;SDS011;44361;51.476;5.700;2023-11-21T05:45:45;62.08;;;23.42;;
58581;SDS011;44361;51.476;5.700;2023-11-21T05:48:11;83.35;;;25.52;;
58581;SDS011;44361;51.476;5.700;2023-11-21T05:50:37;73.82;;;26.50;;
58581;SDS011;44361;51.476;5.700;2023-11-21T05:53:03;67.38;;;23.70;;
58581;SDS011;44361;51.476;5.700;2023-11-21T05:55:29;66.25;;;23.23;;
58581;SDS011;44361;51.476;5.700;2023-11-21T05:57:56;63.05;;;24.30;;
58581;SDS011;44361;51.476;5.700;2023-11-21T06:00:21;67.38;;;22.95;;
58581;SDS011;44361;51.476;5.700;2023-11-21T06:02:50;71.07;;;23.48;;
58581;SDS011;44361;51.476;5.700;2023-11-21T06:05:18;59.53;;;22.23;;
58581;SDS011;44361;51.476;5.700;2023-11-21T06:07:45;63.13;;;22.13;;
58581;SDS011;44361;51.476;5.700;2023-11-21T06:10:11;50.53;;;21.55;;
58581;SDS011;44361;51.476;5.700;2023-11-21T06:12:39;53.63;;;22.30;;
58581;SDS011;44361;51.476;5.700;2023-11-21T06:15:08;44.35;;;20.58;;
58581;SDS011;44361;51.476;5.700;2023-11-21T06:17:35;49.60;;;20.92;;
58581;SDS011;44361;51.476;5.700;2023-11-21T06:20:02;53.85;;;22.98;;
58581;SDS011;44361;51.476;5.700;2023-11-21T06:22:34;49.92;;;23.10;;
58581;SDS011;44361;51.476;5.700;2023-11-21T06:25:02;50.17;;;22.02;;
58581;SDS011;44361;51.476;5.700;2023-11-21T06:27:48;56.40;;;22.60;;
58581;SDS011;44361;51.476;5.700;2023-11-21T06:30:16;59.42;;;22.23;;
58581;SDS011;44361;51.476;5.700;2023-11-21T06:32:44;50.95;;;23.17;;
58581;SDS011;44361;51.476;5.700;2023-11-21T06:35:13;63.33;;;22.98;;
58581;SDS011;44361;51.476;5.700;2023-11-21T06:37:40;54.72;;;23.23;;
58581;SDS011;44361;51.476;5.700;2023-11-21T06:40:06;69.85;;;23.70;;
58581;SDS011;44361;51.476;5.700;2023-11-21T06:42:32;53.70;;;23.50;;
58581;SDS011;44361;51.476;5.700;2023-11-21T06:44:58;59.15;;;22.92;;
58581;SDS011;44361;51.476;5.700;2023-11-21T06:47:24;60.78;;;22.75;;
58581;SDS011;44361;51.476;5.700;2023-11-21T06:49:50;63.90;;;23.95;;
58581;SDS011;44361;51.476;5.700;2023-11-21T06:52:16;61.67;;;23.65;;
58581;SDS011;44361;51.476;5.700;2023-11-21T06:54:43;71.72;;;24.92;;
58581;SDS011;44361;51.476;5.700;2023-11-21T06:57:09;69.82;;;25.52;;
58581;SDS011;44361;51.476;5.700;2023-11-21T06:59:34;59.92;;;23.27;;
58581;SDS011;44361;51.476;5.700;2023-11-21T07:02:00;65.45;;;23.27;;
58581;SDS011;44361;51.476;5.700;2023-11-21T07:04:25;71.45;;;24.67;;
58581;SDS011;44361;51.476;5.700;2023-11-21T07:06:52;69.05;;;26.40;;
58581;SDS011;44361;51.476;5.700;2023-11-21T07:09:18;69.13;;;24.67;;
58581;SDS011;44361;51.476;5.700;2023-11-21T07:11:47;76.80;;;25.17;;
58581;SDS011;44361;51.476;5.700;2023-11-21T07:14:15;84.43;;;24.92;;
58581;SDS011;44361;51.476;5.700;2023-11-21T07:16:42;77.88;;;24.50;;
58581;SDS011;44361;51.476;5.700;2023-11-21T07:19:07;67.28;;;24.55;;
58581;SDS011;44361;51.476;5.700;2023-11-21T07:21:33;71.72;;;24.67;;
58581;SDS011;44361;51.476;5.700;2023-11-21T07:24:03;74.90;;;25.40;;
58581;SDS011;44361;51.476;5.700;2023-11-21T07:26:29;70.55;;;25.02;;
58581;SDS011;44361;51.476;5.700;2023-11-21T07:28:55;66.75;;;25.63;;
58581;SDS011;44361;51.476;5.700;2023-11-21T07:31:21;76.35;;;28.00;;
58581;SDS011;44361;51.476;5.700;2023-11-21T07:33:47;76.78;;;26.83;;
58581;SDS011;44361;51.476;5.700;2023-11-21T07:36:14;87.28;;;28.98;;
58581;SDS011;44361;51.476;5.700;2023-11-21T07:38:40;75.25;;;26.42;;
58581;SDS011;44361;51.476;5.700;2023-11-21T07:41:06;93.45;;;28.77;;
58581;SDS011;44361;51.476;5.700;2023-11-21T07:43:34;86.72;;;28.15;;
58581;SDS011;44361;51.476;5.700;2023-11-21T07:46:02;86.85;;;26.42;;
58581;SDS011;44361;51.476;5.700;2023-11-21T07:48:29;100.03;;;27.73;;
58581;SDS011;44361;51.476;5.700;2023-11-21T07:50:55;95.32;;;32.38;;
58581;SDS011;44361;51.476;5.700;2023-11-21T07:53:21;89.20;;;28.15;;
58581;SDS011;44361;51.476;5.700;2023-11-21T07:55:47;88.57;;;29.23;;
58581;SDS011;44361;51.476;5.700;2023-11-21T07:58:12;90.75;;;28.27;;
58581;SDS011;44361;51.476;5.700;2023-11-21T08:00:38;96.15;;;29.10;;
58581;SDS011;44361;51.476;5.700;2023-11-21T08:03:04;101.20;;;29.63;;
58581;SDS011;44361;51.476;5.700;2023-11-21T08:05:31;86.43;;;28.58;;
58581;SDS011;44361;51.476;5.700;2023-11-21T08:07:56;94.28;;;29.30;;
58581;SDS011;44361;51.476;5.700;2023-11-21T08:10:22;98.20;;;28.95;;
58581;SDS011;44361;51.476;5.700;2023-11-21T08:12:48;80.32;;;27.85;;
58581;SDS011;44361;51.476;5.700;2023-11-21T08:15:15;84.50;;;28.10;;
58581;SDS011;44361;51.476;5.700;2023-11-21T08:17:41;93.38;;;28.00;;
58581;SDS011;44361;51.476;5.700;2023-11-21T08:20:06;88.03;;;27.30;;
58581;SDS011;44361;51.476;5.700;2023-11-21T08:22:33;79.72;;;25.40;;
58581;SDS011;44361;51.476;5.700;2023-11-21T08:24:59;74.20;;;26.52;;
58581;SDS011;44361;51.476;5.700;2023-11-21T08:27:25;93.07;;;27.10;;
58581;SDS011;44361;51.476;5.700;2023-11-21T08:29:50;74.50;;;25.20;;
58581;SDS011;44361;51.476;5.700;2023-11-21T08:32:17;80.35;;;26.30;;
58581;SDS011;44361;51.476;5.700;2023-11-21T08:34:43;66.68;;;24.88;;
58581;SDS011;44361;51.476;5.700;2023-11-21T08:37:09;67.35;;;23.95;;
58581;SDS011;44361;51.476;5.700;2023-11-21T08:39:36;65.28;;;24.92;;
58581;SDS011;44361;51.476;5.700;2023-11-21T08:42:02;58.92;;;23.50;;
58581;SDS011;44361;51.476;5.700;2023-11-21T08:44:28;61.17;;;22.90;;
58581;SDS011;44361;51.476;5.700;2023-11-21T08:46:55;62.83;;;23.25;;
58581;SDS011;44361;51.476;5.700;2023-11-21T08:49:21;59.83;;;21.80;;
58581;SDS011;44361;51.476;5.700;2023-11-21T08:51:46;58.90;;;22.65;;
58581;SDS011;44361;51.476;5.700;2023-11-21T08:54:12;66.25;;;23.98;;
58581;SDS011;44361;51.476;5.700;2023-11-21T08:56:37;72.22;;;23.17;;
58581;SDS011;44361;51.476;5.700;2023-11-21T08:59:03;63.50;;;23.27;;
58581;SDS011;44361;51.476;5.700;2023-11-21T09:01:29;58.13;;;22.92;;
58581;SDS011;44361;51.476;5.700;2023-11-21T09:03:56;61.60;;;21.98;;
58581;SDS011;44361;51.476;5.700;2023-11-21T09:06:22;57.42;;;23.08;;
58581;SDS011;44361;51.476;5.700;2023-11-21T09:08:49;56.22;;;21.63;;
58581;SDS011;44361;51.476;5.700;2023-11-21T09:11:15;67.28;;;23.00;;
58581;SDS011;44361;51.476;5.700;2023-11-21T09:13:40;60.65;;;23.38;;
58581;SDS011;44361;51.476;5.700;2023-11-21T09:16:06;55.83;;;21.95;;
58581;SDS011;44361;51.476;5.700;2023-11-21T09:18:32;57.35;;;22.42;;
58581;SDS011;44361;51.476;5.700;2023-11-21T09:20:57;57.88;;;22.73;;
58581;SDS011;44361;51.476;5.700;2023-11-21T09:23:23;55.17;;;22.23;;
58581;SDS011;44361;51.476;5.700;2023-11-21T09:25:49;52.45;;;22.30;;
58581;SDS011;44361;51.476;5.700;2023-11-21T09:28:16;62.35;;;22.98;;
58581;SDS011;44361;51.476;5.700;2023-11-21T09:30:42;54.70;;;23.40;;
58581;SDS011;44361;51.476;5.700;2023-11-21T09:33:08;53.40;;;21.33;;
58581;SDS011;44361;51.476;5.700;2023-11-21T09:35:36;44.67;;;19.77;;
58581;SDS011;44361;51.476;5.700;2023-11-21T09:38:03;53.50;;;20.48;;
58581;SDS011;44361;51.476;5.700;2023-11-21T09:40:35;52.13;;;21.10;;
58581;SDS011;44361;51.476;5.700;2023-11-21T09:43:02;49.15;;;20.95;;
58581;SDS011;44361;51.476;5.700;2023-11-21T09:45:44;49.58;;;19.70;;
58581;SDS011;44361;51.476;5.700;2023-11-21T09:48:12;45.13;;;18.48;;
58581;SDS011;44361;51.476;5.700;2023-11-21T09:50:39;47.95;;;19.55;;
58581;SDS011;44361;51.476;5.700;2023-11-21T09:53:16;43.78;;;19.08;;
58581;SDS011;44361;51.476;5.700;2023-11-21T09:55:46;44.38;;;18.20;;
58581;SDS011;44361;51.476;5.700;2023-11-21T09:58:13;51.65;;;20.45;;
58581;SDS011;44361;51.476;5.700;2023-11-21T10:00:40;47.25;;;20.08;;
58581;SDS011;44361;51.476;5.700;2023-11-21T10:03:07;45.88;;;20.77;;
58581;SDS011;44361;51.476;5.700;2023-11-21T10:05:33;50.75;;;19.42;;
58581;SDS011;44361;51.476;5.700;2023-11-21T10:08:00;40.92;;;17.67;;
58581;SDS011;44361;51.476;5.700;2023-11-21T10:10:25;54.50;;;19.88;;
58581;SDS011;44361;51.476;5.700;2023-11-21T10:12:55;51.90;;;19.67;;
58581;SDS011;44361;51.476;5.700;2023-11-21T10:15:22;49.75;;;19.67;;
58581;SDS011;44361;51.476;5.700;2023-11-21T10:17:50;48.45;;;21.08;;
58581;SDS011;44361;51.476;5.700;2023-11-21T10:20:19;55.47;;;21.80;;
58581;SDS011;44361;51.476;5.700;2023-11-21T10:22:45;53.88;;;21.73;;
58581;SDS011;44361;51.476;5.700;2023-11-21T10:25:10;57.25;;;22.05;;
58581;SDS011;44361;51.476;5.700;2023-11-21T10:27:39;51.28;;;22.42;;
58581;SDS011;44361;51.476;5.700;2023-11-21T10:30:06;56.75;;;21.15;;
58581;SDS011;44361;51.476;5.700;2023-11-21T10:32:33;55.75;;;21.33;;
58581;SDS011;44361;51.476;5.700;2023-11-21T10:34:59;64.55;;;23.65;;
58581;SDS011;44361;51.476;5.700;2023-11-21T10:37:32;60.90;;;23.75;;
58581;SDS011;44361;51.476;5.700;2023-11-21T10:40:01;54.85;;;23.58;;
58581;SDS011;44361;51.476;5.700;2023-11-21T10:42:27;61.97;;;23.98;;
58581;SDS011;44361;51.476;5.700;2023-11-21T10:44:53;65.00;;;23.92;;
58581;SDS011;44361;51.476;5.700;2023-11-21T10:47:19;73.05;;;23.52;;
58581;SDS011;44361;51.476;5.700;2023-11-21T10:49:48;61.55;;;24.17;;
58581;SDS011;44361;51.476;5.700;2023-11-21T10:52:14;62.20;;;24.25;;
58581;SDS011;44361;51.476;5.700;2023-11-21T10:54:43;66.03;;;22.65;;
58581;SDS011;44361;51.476;5.700;2023-11-21T10:57:08;62.13;;;23.38;;
58581;SDS011;44361;51.476;5.700;2023-11-21T10:59:35;66.60;;;25.52;;
58581;SDS011;44361;51.476;5.700;2023-11-21T11:02:02;65.45;;;24.23;;
58581;SDS011;44361;51.476;5.700;2023-11-21T11:04:46;67.78;;;24.33;;
58581;SDS011;44361;51.476;5.700;2023-11-21T11:07:13;61.88;;;24.92;;
58581;SDS011;44361;51.476;5.700;2023-11-21T11:09:41;59.97;;;23.90;;
58581;SDS011;44361;51.476;5.700;2023-11-21T11:12:07;75.28;;;26.25;;
58581;SDS011;44361;51.476;5.700;2023-11-21T11:14:34;64.85;;;22.88;;
58581;SDS011;44361;51.476;5.700;2023-11-21T11:17:01;60.13;;;24.25;;
58581;SDS011;44361;51.476;5.700;2023-11-21T11:19:29;59.63;;;22.85;;
58581;SDS011;44361;51.476;5.700;2023-11-21T11:22:00;70.20;;;24.63;;
58581;SDS011;44361;51.476;5.700;2023-11-21T11:24:59;59.67;;;24.77;;
58581;SDS011;44361;51.476;5.700;2023-11-21T11:28:13;61.85;;;24.85;;
58581;SDS011;44361;51.476;5.700;2023-11-21T11:33:41;59.47;;;22.23;;
58581;SDS011;44361;51.476;5.700;2023-11-21T11:38:48;70.50;;;23.50;;
58581;SDS011;44361;51.476;5.700;2023-11-21T11:41:24;67.65;;;23.75;;
58581;SDS011;44361;51.476;5.700;2023-11-21T11:43:51;61.03;;;23.75;;
58581;SDS011;44361;51.476;5.700;2023-11-21T11:46:18;61.30;;;23.90;;
58581;SDS011;44361;51.476;5.700;2023-11-21T11:48:46;56.33;;;22.55;;
58581;SDS011;44361;51.476;5.700;2023-11-21T11:51:14;59.75;;;22.65;;
58581;SDS011;44361;51.476;5.700;2023-11-21T11:53:42;62.25;;;24.45;;
58581;SDS011;44361;51.476;5.700;2023-11-21T11:56:30;62.30;;;23.83;;
58581;SDS011;44361;51.476;5.700;2023-11-21T11:58:57;57.58;;;22.17;;
58581;SDS011;44361;51.476;5.700;2023-11-21T12:01:25;51.35;;;23.17;;
58581;SDS011;44361;51.476;5.700;2023-11-21T12:06:39;56.75;;;21.90;;
58581;SDS011;44361;51.476;5.700;2023-11-21T12:09:18;50.38;;;20.13;;
58581;SDS011;44361;51.476;5.700;2023-11-21T12:11:46;49.30;;;20.55;;
58581;SDS011;44361;51.476;5.700;2023-11-21T12:14:16;51.42;;;21.00;;
58581;SDS011;44361;51.476;5.700;2023-11-21T12:16:42;51.85;;;20.75;;
58581;SDS011;44361;51.476;5.700;2023-11-21T12:19:08;50.60;;;19.92;;
58581;SDS011;44361;51.476;5.700;2023-11-21T12:21:36;47.75;;;19.70;;
58581;SDS011;44361;51.476;5.700;2023-11-21T12:24:02;53.67;;;22.35;;
58581;SDS011;44361;51.476;5.700;2023-11-21T12:26:28;55.10;;;21.67;;
58581;SDS011;44361;51.476;5.700;2023-11-21T12:28:53;48.63;;;21.25;;
58581;SDS011;44361;51.476;5.700;2023-11-21T12:31:22;47.58;;;21.65;;
58581;SDS011;44361;51.476;5.700;2023-11-21T12:33:48;51.88;;;19.38;;
58581;SDS011;44361;51.476;5.700;2023-11-21T12:36:14;43.17;;;20.15;;
58581;SDS011;44361;51.476;5.700;2023-11-21T12:38:41;44.03;;;19.92;;
58581;SDS011;44361;51.476;5.700;2023-11-21T12:41:08;53.67;;;21.67;;
58581;SDS011;44361;51.476;5.700;2023-11-21T12:43:35;51.58;;;21.63;;
58581;SDS011;44361;51.476;5.700;2023-11-21T12:46:04;57.03;;;22.17;;
58581;SDS011;44361;51.476;5.700;2023-11-21T12:48:37;49.17;;;21.58;;
58581;SDS011;44361;51.476;5.700;2023-11-21T12:51:04;62.80;;;23.88;;
58581;SDS011;44361;51.476;5.700;2023-11-21T12:53:31;52.47;;;22.80;;
58581;SDS011;44361;51.476;5.700;2023-11-21T12:56:02;58.70;;;23.20;;
58581;SDS011;44361;51.476;5.700;2023-11-21T12:58:31;59.65;;;22.83;;
58581;SDS011;44361;51.476;5.700;2023-11-21T13:00:58;66.32;;;23.35;;
58581;SDS011;44361;51.476;5.700;2023-11-21T13:03:24;54.85;;;24.08;;
58581;SDS011;44361;51.476;5.700;2023-11-21T13:05:50;50.30;;;22.35;;
58581;SDS011;44361;51.476;5.700;2023-11-21T13:08:18;55.58;;;22.48;;
58581;SDS011;44361;51.476;5.700;2023-11-21T13:10:48;50.03;;;21.85;;
58581;SDS011;44361;51.476;5.700;2023-11-21T13:13:15;46.35;;;20.33;;
58581;SDS011;44361;51.476;5.700;2023-11-21T13:15:47;51.05;;;21.52;;
58581;SDS011;44361;51.476;5.700;2023-11-21T13:18:13;46.00;;;20.92;;
58581;SDS011;44361;51.476;5.700;2023-11-21T13:20:40;48.97;;;21.33;;
58581;SDS011;44361;51.476;5.700;2023-11-21T13:23:08;51.13;;;20.98;;
58581;SDS011;44361;51.476;5.700;2023-11-21T13:25:36;43.63;;;20.38;;
58581;SDS011;44361;51.476;5.700;2023-11-21T13:28:04;50.47;;;20.83;;
58581;SDS011;44361;51.476;5.700;2023-11-21T13:30:30;43.70;;;19.65;;
58581;SDS011;44361;51.476;5.700;2023-11-21T13:32:59;51.42;;;21.58;;
58581;SDS011;44361;51.476;5.700;2023-11-21T13:35:35;46.72;;;20.55;;
58581;SDS011;44361;51.476;5.700;2023-11-21T13:38:22;49.28;;;20.38;;
58581;SDS011;44361;51.476;5.700;2023-11-21T13:40:48;55.95;;;22.08;;
58581;SDS011;44361;51.476;5.700;2023-11-21T13:43:23;55.53;;;22.90;;
58581;SDS011;44361;51.476;5.700;2023-11-21T13:45:50;56.42;;;22.83;;
58581;SDS011;44361;51.476;5.700;2023-11-21T13:48:33;56.58;;;22.35;;
58581;SDS011;44361;51.476;5.700;2023-11-21T13:51:13;63.17;;;24.15;;
58581;SDS011;44361;51.476;5.700;2023-11-21T13:53:45;63.05;;;23.00;;
58581;SDS011;44361;51.476;5.700;2023-11-21T13:56:14;63.00;;;25.40;;
58581;SDS011;44361;51.476;5.700;2023-11-21T13:58:44;54.95;;;23.20;;
58581;SDS011;44361;51.476;5.700;2023-11-21T14:01:16;60.70;;;24.83;;
58581;SDS011;44361;51.476;5.700;2023-11-21T14:03:55;71.60;;;24.98;;
58581;SDS011;44361;51.476;5.700;2023-11-21T14:09:16;61.35;;;24.90;;
58581;SDS011;44361;51.476;5.700;2023-11-21T14:14:16;57.97;;;23.20;;
58581;SDS011;44361;51.476;5.700;2023-11-21T14:16:43;58.50;;;22.63;;
58581;SDS011;44361;51.476;5.700;2023-11-21T14:19:09;55.53;;;21.92;;
58581;SDS011;44361;51.476;5.700;2023-11-21T14:21:40;51.72;;;21.67;;
58581;SDS011;44361;51.476;5.700;2023-11-21T14:24:09;49.05;;;21.25;;
58581;SDS011;44361;51.476;5.700;2023-11-21T14:26:41;53.95;;;21.55;;
58581;SDS011;44361;51.476;5.700;2023-11-21T14:29:08;53.03;;;21.45;;
58581;SDS011;44361;51.476;5.700;2023-11-21T14:31:36;52.60;;;21.67;;
58581;SDS011;44361;51.476;5.700;2023-11-21T14:34:01;55.38;;;21.02;;
58581;SDS011;44361;51.476;5.700;2023-11-21T14:36:28;57.63;;;21.65;;